Time;durP1;ratioP1;P1;durP2;ratioP2;P2;SDS_P1;SDS_P2;PMS_P1;PMS_P2;Temp;Humidity;BMP_temperature;BMP_pressure;BME280_temperature;BME280_humidity;BME280_pressure;Samples;Min_cycle;Max_cycle;Signal;HPM_P1;HPM_P2
2020/12/16 00:01:59;;;;;;;;;;;;;;;;;;5051627;28;19944;-70
2020/12/16 00:04:25;;;;;;;;;;;;;;;;;;5050244;28;20412;-70
2020/12/16 00:06:50;;;;;;;;;;;;;;;;;;5050356;28;20002;-69
2020/12/16 00:09:16;;;;;;;;;;;;;;;;;;5051375;28;19956;-69
2020/12/16 00:11:42;;;;;;;;;;;;;;;;;;5051601;28;19991;-69
2020/12/16 00:14:08;;;;;;;;;;;;;;;;;;5050069;28;20015;-69
2020/12/16 00:16:34;;;;;;;;;;;;;;;;;;5051480;28;19913;-70
2020/12/16 00:19:00;;;;;;;;;;;;;;;;;;5043899;28;19996;-69
2020/12/16 00:21:26;;;;;;;;;;;;;;;;;;5043829;28;19909;-69
2020/12/16 00:23:52;;;;;;;;;;;;;;;;;;5052041;28;19919;-69
2020/12/16 00:26:18;;;;;;;;;;;;;;;;;;5051599;28;19916;-69
2020/12/16 00:28:43;;;;;;;;;;;;;;;;;;5050981;28;19920;-70
2020/12/16 00:31:09;;;;;;;;;;;;;;;;;;5051402;28;19909;-69
2020/12/16 00:33:35;;;;;;;;;;;;;;;;;;5042609;28;19909;-70
2020/12/16 00:36:01;;;;;;;;;;;;;;;;;;5031248;28;19960;-69
2020/12/16 00:38:27;;;;;;;;;;;;;;;;;;5031205;28;19909;-70
2020/12/16 00:40:53;;;;;;;;;;;;;;;;;;5030118;28;19909;-70
2020/12/16 00:43:19;;;;;;;;;;;;;;;;;;5031130;28;19984;-69
2020/12/16 00:45:45;;;;;;;;;;;;;;;;;;5031336;28;20007;-69
2020/12/16 00:48:11;;;;;;;;;;;;;;;;;;5029721;28;20004;-69
2020/12/16 00:50:37;;;;;;;;;;;;;;;;;;5037849;28;19917;-69
2020/12/16 00:53:02;;;;;;;;;;;;;;;;;;5048127;28;19909;-69
2020/12/16 00:55:28;;;;;;;;;;;;;;;;;;5051359;28;19999;-69
2020/12/16 00:57:54;;;;;;;;;;;;;;;;;;5049910;28;19912;-69
2020/12/16 01:00:20;;;;;;;;;;;;;;;;;;5051284;28;19909;-69
2020/12/16 01:02:46;;;;;;;;;;;;;;;;;;5049719;28;19913;-70
2020/12/16 01:05:12;;;;;;;;;;;;;;;;;;5049666;28;19909;-69
2020/12/16 01:07:38;;;;;;;;;;;;;;;;;;5050848;28;19915;-70
2020/12/16 01:10:04;;;;;;;;;;;;;;;;;;5050988;28;19932;-70
2020/12/16 01:12:30;;;;;;;;;;;;;;;;;;5049164;28;19951;-69
2020/12/16 01:14:55;;;;;;;;;;;;;;;;;;5051025;28;19974;-70
2020/12/16 01:17:21;;;;;;;;;;;;;;;;;;5050717;28;19947;-69
2020/12/16 01:19:47;;;;;;;;;;;;;;;;;;5043601;28;19959;-70
2020/12/16 01:22:13;;;;;;;;;;;;;;;;;;5042404;28;19967;-70
2020/12/16 01:24:39;;;;;;;;;;;;;;;;;;5051039;28;20054;-70
2020/12/16 01:27:05;;;;;;;;;;;;;;;;;;5049684;28;20011;-70
2020/12/16 01:29:31;;;;;;;;;;;;;;;;;;5050682;28;19915;-70
2020/12/16 01:31:57;;;;;;;;;;;;;;;;;;5053297;28;19913;-70
2020/12/16 01:34:23;;;;;;;;;;;;;;;;;;5054617;28;20411;-70
2020/12/16 01:36:49;;;;;;;;;;;;;;;;;;5054678;28;20360;-70
2020/12/16 01:39:14;;;;;;;;;;;;;;;;;;5054331;28;19960;-70
2020/12/16 01:41:40;;;;;;;;;;;;;;;;;;5054147;28;19920;-70
2020/12/16 01:44:06;;;;;;;;;;;;;;;;;;5054565;28;20391;-70
2020/12/16 01:46:32;;;;;;;;;;;;;;;;;;5054403;28;19962;-70
2020/12/16 01:48:58;;;;;;;;;;;;;;;;;;5047045;28;19917;-70
2020/12/16 01:51:24;;;;;;;;;;;;;;;;;;5048724;28;20295;-69
2020/12/16 01:53:50;;;;;;;;;;;;;;;;;;5063141;28;19920;-70
2020/12/16 01:56:16;;;;;;;;;;;;;;;;;;5066564;28;19909;-70
2020/12/16 01:58:42;;;;;;;;;;;;;;;;;;5056403;28;20297;-70
2020/12/16 02:01:08;;;;;;;;;;;;;;;;;;5054653;28;19908;-70
2020/12/16 02:03:34;;;;;;;;;;;;;;;;;;5056675;28;20020;-70
2020/12/16 02:06:00;;;;;;;;;;;;;;;;;;5056189;28;20332;-70
2020/12/16 02:08:26;;;;;;;;;;;;;;;;;;5061163;28;19988;-71
2020/12/16 02:10:51;;;;;;;;;;;;;;;;;;5060323;28;20012;-69
2020/12/16 02:13:17;;;;;;;;;;;;;;;;;;5054444;28;20435;-70
2020/12/16 02:15:43;;;;;;;;;;;;;;;;;;5054339;28;20012;-70
2020/12/16 02:18:09;;;;;;;;;;;;;;;;;;5053918;28;20007;-70
2020/12/16 02:20:35;;;;;;;;;;;;;;;;;;5040621;28;20000;-70
2020/12/16 02:23:01;;;;;;;;;;;;;;;;;;5051730;28;19936;-70
2020/12/16 02:25:27;;;;;;;;;;;;;;;;;;5053040;28;19909;-70
2020/12/16 02:27:53;;;;;;;;;;;;;;;;;;5053421;28;19909;-69
2020/12/16 02:30:19;;;;;;;;;;;;;;;;;;5049007;28;19960;-70
2020/12/16 02:32:45;;;;;;;;;;;;;;;;;;5032239;28;20004;-69
2020/12/16 02:35:11;;;;;;;;;;;;;;;;;;5032207;28;20377;-70
2020/12/16 02:37:36;;;;;;;;;;;;;;;;;;5032151;28;19995;-70
2020/12/16 02:40:02;;;;;;;;;;;;;;;;;;5033380;28;19919;-70
2020/12/16 02:42:28;;;;;;;;;;;;;;;;;;5031973;28;19956;-70
2020/12/16 02:44:54;;;;;;;;;;;;;;;;;;5033691;28;19944;-70
2020/12/16 02:47:20;;;;;;;;;;;;;;;;;;5033507;28;19960;-68
2020/12/16 02:49:46;;;;;;;;;;;;;;;;;;5039349;28;19917;-69
2020/12/16 02:52:12;;;;;;;;;;;;;;;;;;5044715;28;20462;-70
2020/12/16 02:54:38;;;;;;;;;;;;;;;;;;5052961;28;19913;-69
2020/12/16 02:57:04;;;;;;;;;;;;;;;;;;5052940;28;20402;-69
2020/12/16 02:59:30;;;;;;;;;;;;;;;;;;5052804;28;19909;-69
2020/12/16 03:01:56;;;;;;;;;;;;;;;;;;5048761;28;19948;-69
2020/12/16 03:04:21;;;;;;;;;;;;;;;;;;5041685;28;20980;-69
2020/12/16 03:06:47;;;;;;;;;;;;;;;;;;5032730;28;19952;-69
2020/12/16 03:09:13;;;;;;;;;;;;;;;;;;5032550;28;19909;-69
2020/12/16 03:11:39;;;;;;;;;;;;;;;;;;5032900;28;19909;-69
2020/12/16 03:14:05;;;;;;;;;;;;;;;;;;5031228;28;19917;-70
2020/12/16 03:16:31;;;;;;;;;;;;;;;;;;5031616;28;19909;-69
2020/12/16 03:18:57;;;;;;;;;;;;;;;;;;5031121;28;19932;-69
2020/12/16 03:21:23;;;;;;;;;;;;;;;;;;5044104;28;19947;-69
2020/12/16 03:23:49;;;;;;;;;;;;;;;;;;5051301;28;19913;-69
2020/12/16 03:26:15;;;;;;;;;;;;;;;;;;5052584;28;19909;-69
2020/12/16 03:28:41;;;;;;;;;;;;;;;;;;5051908;28;19997;-69
2020/12/16 03:31:07;;;;;;;;;;;;;;;;;;5052377;28;19952;-71
2020/12/16 03:33:33;;;;;;;;;;;;;;;;;;5052280;28;20300;-71
2020/12/16 03:35:59;;;;;;;;;;;;;;;;;;5050664;28;20364;-71
2020/12/16 03:38:25;;;;;;;;;;;;;;;;;;5051925;28;19987;-69
2020/12/16 03:40:51;;;;;;;;;;;;;;;;;;5050914;28;19909;-71
2020/12/16 03:43:17;;;;;;;;;;;;;;;;;;5051903;28;19965;-70
2020/12/16 03:45:43;;;;;;;;;;;;;;;;;;5052160;28;19916;-71
2020/12/16 03:48:08;;;;;;;;;;;;;;;;;;5051790;28;19963;-70
2020/12/16 03:50:34;;;;;;;;;;;;;;;;;;5034311;28;19963;-71
2020/12/16 03:53:00;;;;;;;;;;;;;;;;;;5048076;28;20276;-71
2020/12/16 03:55:26;;;;;;;;;;;;;;;;;;5050882;28;19948;-70
2020/12/16 03:57:52;;;;;;;;;;;;;;;;;;5050245;28;19967;-70
2020/12/16 04:00:18;;;;;;;;;;;;;;;;;;5050182;28;20475;-71
2020/12/16 04:02:44;;;;;;;;;;;;;;;;;;5039568;28;20000;-70
2020/12/16 04:05:10;;;;;;;;;;;;;;;;;;5029373;28;19943;-70
2020/12/16 04:07:36;;;;;;;;;;;;;;;;;;5031536;28;19951;-71
2020/12/16 04:10:02;;;;;;;;;;;;;;;;;;5030356;28;20349;-70
2020/12/16 04:12:27;;;;;;;;;;;;;;;;;;5031424;28;20353;-70
2020/12/16 04:14:53;;;;;;;;;;;;;;;;;;5031587;28;19913;-70
2020/12/16 04:17:19;;;;;;;;;;;;;;;;;;5031536;28;19916;-71
2020/12/16 04:19:45;;;;;;;;;;;;;;;;;;5037291;28;20028;-70
2020/12/16 04:22:11;;;;;;;;;;;;;;;;;;5042874;28;20007;-71
2020/12/16 04:24:37;;;;;;;;;;;;;;;;;;5049982;28;19962;-71
2020/12/16 04:27:03;;;;;;;;;;;;;;;;;;5051234;28;19995;-71
2020/12/16 04:29:29;;;;;;;;;;;;;;;;;;5051130;28;20357;-70
2020/12/16 04:31:55;;;;;;;;;;;;;;;;;;5050778;28;20004;-70
2020/12/16 04:34:20;;;;;;;;;;;;;;;;;;5049767;28;19909;-70
2020/12/16 04:36:47;;;;;;;;;;;;;;;;;;5049981;28;19924;-70
2020/12/16 04:39:12;;;;;;;;;;;;;;;;;;5049705;28;20360;-70
2020/12/16 04:41:38;;;;;;;;;;;;;;;;;;5027707;28;19951;-71
2020/12/16 04:44:04;;;;;;;;;;;;;;;;;;5029834;28;19956;-71
2020/12/16 04:46:30;;;;;;;;;;;;;;;;;;5034787;28;19944;-71
2020/12/16 04:48:56;;;;;;;;;;;;;;;;;;5046849;28;20358;-71
2020/12/16 04:51:22;;;;;;;;;;;;;;;;;;5049569;28;19989;-71
2020/12/16 04:53:48;;;;;;;;;;;;;;;;;;5051063;28;20004;-71
2020/12/16 04:56:14;;;;;;;;;;;;;;;;;;5049564;28;20265;-71
2020/12/16 04:58:40;;;;;;;;;;;;;;;;;;5049278;28;19909;-71
2020/12/16 05:01:06;;;;;;;;;;;;;;;;;;5051101;28;19909;-70
2020/12/16 05:03:32;;;;;;;;;;;;;;;;;;5050892;28;20006;-70
2020/12/16 05:05:57;;;;;;;;;;;;;;;;;;5050279;28;19915;-70
2020/12/16 05:08:23;;;;;;;;;;;;;;;;;;5044876;28;19951;-70
2020/12/16 05:10:49;;;;;;;;;;;;;;;;;;5053670;28;20003;-70
2020/12/16 05:13:15;;;;;;;;;;;;;;;;;;5054043;28;20396;-71
2020/12/16 05:15:41;;;;;;;;;;;;;;;;;;5054967;28;19904;-70
2020/12/16 05:18:07;;;;;;;;;;;;;;;;;;5054537;28;20384;-70
2020/12/16 05:20:33;;;;;;;;;;;;;;;;;;5054582;28;19920;-71
2020/12/16 05:23:00;;;;;;;;;;;;;;;;;;5053019;28;19959;-70
2020/12/16 05:25:25;;;;;;;;;;;;;;;;;;5053136;28;19909;-70
2020/12/16 05:27:52;;;;;;;;;;;;;;;;;;5054465;28;20384;-70
2020/12/16 05:30:18;;;;;;;;;;;;;;;;;;5053166;28;20002;-71
2020/12/16 05:32:44;;;;;;;;;;;;;;;;;;5053251;28;19944;-71
2020/12/16 05:35:10;;;;;;;;;;;;;;;;;;5054579;28;19991;-71
2020/12/16 05:37:36;;;;;;;;;;;;;;;;;;5046978;28;20454;-71
2020/12/16 05:40:02;;;;;;;;;;;;;;;;;;5051192;28;19909;-70
2020/12/16 05:42:28;;;;;;;;;;;;;;;;;;5054413;28;20549;-71
2020/12/16 05:44:54;;;;;;;;;;;;;;;;;;5062366;28;19913;-71
2020/12/16 05:47:19;;;;;;;;;;;;;;;;;;5069574;28;19916;-71
2020/12/16 05:49:45;;;;;;;;;;;;;;;;;;5071037;28;19916;-71
2020/12/16 05:52:11;;;;;;;;;;;;;;;;;;5054389;28;20257;-70
2020/12/16 05:54:37;;;;;;;;;;;;;;;;;;5054042;28;19931;-70
2020/12/16 05:57:03;;;;;;;;;;;;;;;;;;5054135;28;20374;-70
2020/12/16 05:59:29;;;;;;;;;;;;;;;;;;5053852;28;19915;-71
2020/12/16 06:01:55;;;;;;;;;;;;;;;;;;5053988;28;20016;-70
2020/12/16 06:04:21;;;;;;;;;;;;;;;;;;5053881;28;19919;-71
2020/12/16 06:06:47;;;;;;;;;;;;;;;;;;5050378;28;19916;-70
2020/12/16 06:09:13;;;;;;;;;;;;;;;;;;5043662;28;19935;-71
2020/12/16 06:11:38;;;;;;;;;;;;;;;;;;5048744;28;19915;-71
2020/12/16 06:14:04;;;;;;;;;;;;;;;;;;5034236;28;19920;-70
2020/12/16 06:16:30;;;;;;;;;;;;;;;;;;5028615;28;19909;-70
2020/12/16 06:18:56;;;;;;;;;;;;;;;;;;5013839;28;19914;-71
2020/12/16 06:21:22;;;;;;;;;;;;;;;;;;5013983;28;20003;-71
2020/12/16 06:23:48;;;;;;;;;;;;;;;;;;5029809;28;20019;-71
2020/12/16 06:26:14;;;;;;;;;;;;;;;;;;5032132;28;20394;-70
2020/12/16 06:28:40;;;;;;;;;;;;;;;;;;5029285;28;19909;-70
2020/12/16 06:31:06;;;;;;;;;;;;;;;;;;5012764;28;19917;-70
2020/12/16 06:33:32;;;;;;;;;;;;;;;;;;5014288;28;20361;-68
2020/12/16 06:35:58;;;;;;;;;;;;;;;;;;5018841;28;19957;-67
2020/12/16 06:38:24;;;;;;;;;;;;;;;;;;5019190;28;19961;-71
2020/12/16 06:40:50;;;;;;;;;;;;;;;;;;5025096;28;19964;-71
2020/12/16 06:43:16;;;;;;;;;;;;;;;;;;5020979;28;19960;-70
2020/12/16 06:45:41;;;;;;;;;;;;;;;;;;5013788;28;20004;-70
2020/12/16 06:48:07;;;;;;;;;;;;;;;;;;5016941;28;20370;-70
2020/12/16 06:50:33;;;;;;;;;;;;;;;;;;5022864;28;19921;-70
2020/12/16 06:52:59;;;;;;;;;;;;;;;;;;5011892;28;19913;-71
2020/12/16 06:55:25;;;;;;;;;;;;;;;;;;5013669;28;20357;-70
2020/12/16 06:57:51;;;;;;;;;;;;;;;;;;5012306;28;20000;-70
2020/12/16 07:00:17;;;;;;;;;;;;;;;;;;5028585;28;19917;-70
2020/12/16 07:02:43;;;;;;;;;;;;;;;;;;5013409;28;19949;-70
2020/12/16 07:05:09;;;;;;;;;;;;;;;;;;5013355;28;19956;-71
2020/12/16 07:07:35;;;;;;;;;;;;;;;;;;5011489;28;19914;-70
2020/12/16 07:10:01;;;;;;;;;;;;;;;;;;5013182;28;19953;-70
2020/12/16 07:12:26;;;;;;;;;;;;;;;;;;5025939;28;19951;-70
2020/12/16 07:14:52;;;;;;;;;;;;;;;;;;5023408;28;19945;-70
2020/12/16 07:17:18;;;;;;;;;;;;;;;;;;5011807;28;19981;-70
2020/12/16 07:19:44;;;;;;;;;;;;;;;;;;5017230;28;19963;-70
2020/12/16 07:22:10;;;;;;;;;;;;;;;;;;5012411;28;20012;-69
2020/12/16 07:24:36;;;;;;;;;;;;;;;;;;5015262;28;20000;-71
2020/12/16 07:27:02;;;;;;;;;;;;;;;;;;5015138;28;19917;-70
2020/12/16 07:29:28;;;;;;;;;;;;;;;;;;5020518;28;19923;-70
2020/12/16 07:31:54;;;;;;;;;;;;;;;;;;5027735;28;20270;-70
2020/12/16 07:34:20;;;;;;;;;;;;;;;;;;5024289;28;19918;-70
2020/12/16 07:36:46;;;;;;;;;;;;;;;;;;5016937;28;19959;-70
2020/12/16 07:39:11;;;;;;;;;;;;;;;;;;5011282;28;19996;-71
2020/12/16 07:41:37;;;;;;;;;;;;;;;;;;5024579;28;20389;-71
2020/12/16 07:44:03;;;;;;;;;;;;;;;;;;5020634;28;19921;-70
2020/12/16 07:46:29;;;;;;;;;;;;;;;;;;5012652;28;19913;-70
2020/12/16 07:48:55;;;;;;;;;;;;;;;;;;5012192;28;20288;-71
2020/12/16 07:51:21;;;;;;;;;;;;;;;;;;5012526;28;20060;-70
2020/12/16 07:53:47;;;;;;;;;;;;;;;;;;5012732;28;19941;-70
2020/12/16 07:56:13;;;;;;;;;;;;;;;;;;5012552;28;19917;-71
2020/12/16 07:58:39;;;;;;;;;;;;;;;;;;5010925;28;19910;-70
2020/12/16 08:01:05;;;;;;;;;;;;;;;;;;5012356;28;19952;-70
2020/12/16 08:03:30;;;;;;;;;;;;;;;;;;5012315;28;19998;-71
2020/12/16 08:05:56;;;;;;;;;;;;;;;;;;5012653;28;20003;-70
2020/12/16 08:08:22;;;;;;;;;;;;;;;;;;5018536;28;20431;-71
2020/12/16 08:10:48;;;;;;;;;;;;;;;;;;5029115;28;20024;-71
2020/12/16 08:13:14;;;;;;;;;;;;;;;;;;5033117;28;20385;-70
2020/12/16 08:15:40;;;;;;;;;;;;;;;;;;5019321;28;19916;-71
2020/12/16 08:18:06;;;;;;;;;;;;;;;;;;5029857;28;19956;-69
2020/12/16 08:20:33;;;;;;;;;;;;;;;;;;5029223;28;20008;-70
2020/12/16 08:22:59;;;;;;;;;;;;;;;;;;5029362;28;19960;-70
2020/12/16 08:25:24;;;;;;;;;;;;;;;;;;5027712;28;19956;-70
2020/12/16 08:27:50;;;;;;;;;;;;;;;;;;5021415;28;19936;-71
2020/12/16 08:30:16;;;;;;;;;;;;;;;;;;5030845;28;19954;-70
2020/12/16 08:32:43;;;;;;;;;;;;;;;;;;5030846;28;19909;-71
2020/12/16 08:35:09;;;;;;;;;;;;;;;;;;5031038;28;19917;-70
2020/12/16 08:37:34;;;;;;;;;;;;;;;;;;5029036;28;19995;-71
2020/12/16 08:40:00;;;;;;;;;;;;;;;;;;5018941;28;19944;-71
2020/12/16 08:42:26;;;;;;;;;;;;;;;;;;5022999;28;19972;-70
2020/12/16 08:44:52;;;;;;;;;;;;;;;;;;5011753;28;20026;-71
2020/12/16 08:47:18;;;;;;;;;;;;;;;;;;5029881;28;20007;-70
2020/12/16 08:49:44;;;;;;;;;;;;;;;;;;5015728;28;20397;-70
2020/12/16 08:52:10;;;;;;;;;;;;;;;;;;5011570;28;19961;-70
2020/12/16 08:54:37;;;;;;;;;;;;;;;;;;5011827;28;19937;-71
2020/12/16 08:57:03;;;;;;;;;;;;;;;;;;5011737;28;20004;-70
2020/12/16 08:59:29;;;;;;;;;;;;;;;;;;5011581;28;19953;-70
2020/12/16 09:01:55;;;;;;;;;;;;;;;;;;5011514;28;19960;-70
2020/12/16 09:04:21;;;;;;;;;;;;;;;;;;5010958;28;19956;-71
2020/12/16 09:06:47;;;;;;;;;;;;;;;;;;5010488;28;19909;-70
2020/12/16 09:09:13;;;;;;;;;;;;;;;;;;5011354;28;19917;-71
2020/12/16 09:11:39;;;;;;;;;;;;;;;;;;5010503;28;19910;-70
2020/12/16 09:14:05;;;;;;;;;;;;;;;;;;5011942;28;20312;-70
2020/12/16 09:16:31;;;;;;;;;;;;;;;;;;5022216;28;19916;-71
2020/12/16 09:18:57;;;;;;;;;;;;;;;;;;5023053;28;19931;-70
2020/12/16 09:21:23;;;;;;;;;;;;;;;;;;5010358;28;19909;-71
2020/12/16 09:23:49;;;;;;;;;;;;;;;;;;5011480;28;20374;-70
2020/12/16 09:26:14;;;;;;;;;;;;;;;;;;5011677;28;20373;-71
2020/12/16 09:28:40;;;;;;;;;;;;;;;;;;5014988;28;19948;-71
2020/12/16 09:31:06;;;;;;;;;;;;;;;;;;5015746;28;19952;-70
2020/12/16 09:33:32;;;;;;;;;;;;;;;;;;5019957;28;20352;-71
2020/12/16 09:35:58;;;;;;;;;;;;;;;;;;5030361;28;20001;-72
2020/12/16 09:38:24;;;;;;;;;;;;;;;;;;5015200;28;19929;-70
2020/12/16 09:40:50;;;;;;;;;;;;;;;;;;5031681;28;20432;-71
2020/12/16 09:43:16;;;;;;;;;;;;;;;;;;5025120;28;19964;-71
2020/12/16 09:45:42;;;;;;;;;;;;;;;;;;5020827;28;19971;-70
2020/12/16 09:48:08;;;;;;;;;;;;;;;;;;5034961;28;20344;-69
2020/12/16 09:50:34;;;;;;;;;;;;;;;;;;5019970;28;19925;-71
2020/12/16 09:52:59;;;;;;;;;;;;;;;;;;5019015;28;19988;-70
2020/12/16 09:55:25;;;;;;;;;;;;;;;;;;5016672;28;19910;-70
2020/12/16 09:57:51;;;;;;;;;;;;;;;;;;5013683;28;19909;-70
2020/12/16 10:00:17;;;;;;;;;;;;;;;;;;5018351;28;19948;-71
2020/12/16 10:02:43;;;;;;;;;;;;;;;;;;5013104;28;20016;-70
2020/12/16 10:05:09;;;;;;;;;;;;;;;;;;5014724;28;19909;-69
2020/12/16 10:07:35;;;;;;;;;;;;;;;;;;5014076;28;19913;-70
2020/12/16 10:10:01;;;;;;;;;;;;;;;;;;5029335;28;19959;-71
2020/12/16 10:12:27;;;;;;;;;;;;;;;;;;5033204;28;20399;-70
2020/12/16 10:14:53;;;;;;;;;;;;;;;;;;5033199;28;20004;-70
2020/12/16 10:17:19;;;;;;;;;;;;;;;;;;5030080;28;19942;-70
2020/12/16 10:19:45;;;;;;;;;;;;;;;;;;5025825;28;19909;-70
2020/12/16 10:22:11;;;;;;;;;;;;;;;;;;5013924;28;20411;-70
2020/12/16 10:24:37;;;;;;;;;;;;;;;;;;5013101;28;19916;-70
2020/12/16 10:27:03;;;;;;;;;;;;;;;;;;5014343;28;19951;-69
2020/12/16 10:29:29;;;;;;;;;;;;;;;;;;5018154;28;19961;-69
2020/12/16 10:31:55;;;;;;;;;;;;;;;;;;5013767;28;20011;-69
2020/12/16 10:34:21;;;;;;;;;;;;;;;;;;5012638;28;19910;-69
2020/12/16 10:36:46;;;;;;;;;;;;;;;;;;5013915;28;19997;-70
2020/12/16 10:39:12;;;;;;;;;;;;;;;;;;5012065;28;19999;-69
2020/12/16 10:41:38;;;;;;;;;;;;;;;;;;5012635;28;19989;-68
2020/12/16 10:44:04;;;;;;;;;;;;;;;;;;5013504;28;19920;-69
2020/12/16 10:46:30;;;;;;;;;;;;;;;;;;5021162;28;19915;-69
2020/12/16 10:48:56;;;;;;;;;;;;;;;;;;5027740;28;20040;-69
2020/12/16 10:51:22;;;;;;;;;;;;;;;;;;5016418;28;19909;-69
2020/12/16 10:53:48;;;;;;;;;;;;;;;;;;5013280;28;19917;-69
2020/12/16 10:56:14;;;;;;;;;;;;;;;;;;5015267;28;19925;-69
2020/12/16 10:58:40;;;;;;;;;;;;;;;;;;5028920;28;20384;-69
2020/12/16 11:01:06;;;;;;;;;;;;;;;;;;5031935;28;20332;-68
2020/12/16 11:03:31;;;;;;;;;;;;;;;;;;5031690;28;19914;-68
2020/12/16 11:05:57;;;;;;;;;;;;;;;;;;5033149;28;19909;-68
2020/12/16 11:08:23;;;;;;;;;;;;;;;;;;5030951;28;19913;-69
2020/12/16 11:10:49;;;;;;;;;;;;;;;;;;5023956;28;19913;-68
2020/12/16 11:13:15;;;;;;;;;;;;;;;;;;5023331;28;19959;-69
2020/12/16 11:15:41;;;;;;;;;;;;;;;;;;5029076;28;19975;-69
2020/12/16 11:18:07;;;;;;;;;;;;;;;;;;5027125;28;19910;-68
2020/12/16 11:20:33;;;;;;;;;;;;;;;;;;5020880;28;20400;-69
2020/12/16 11:22:59;;;;;;;;;;;;;;;;;;5020990;28;19941;-70
2020/12/16 11:25:25;;;;;;;;;;;;;;;;;;5018427;28;19909;-69
2020/12/16 11:27:51;;;;;;;;;;;;;;;;;;5013659;28;20460;-69
2020/12/16 11:30:17;;;;;;;;;;;;;;;;;;5014181;28;20004;-69
2020/12/16 11:32:43;;;;;;;;;;;;;;;;;;5014353;28;19965;-69
2020/12/16 11:35:09;;;;;;;;;;;;;;;;;;5013760;28;19910;-69
2020/12/16 11:37:39;;;;;;;;;;;;;;;;;;5012820;28;19913;-69
2020/12/16 11:40:05;;;;;;;;;;;;;;;;;;5035502;28;19909;-70
2020/12/16 11:42:31;;;;;;;;;;;;;;;;;;5020024;28;19980;-70
2020/12/16 11:44:56;;;;;;;;;;;;;;;;;;5013854;28;20308;-69
2020/12/16 11:47:22;;;;;;;;;;;;;;;;;;5013598;28;19914;-69
2020/12/16 11:49:48;;;;;;;;;;;;;;;;;;5012254;28;19917;-70
2020/12/16 11:52:14;;;;;;;;;;;;;;;;;;5012067;28;19910;-69
2020/12/16 11:54:40;;;;;;;;;;;;;;;;;;5011742;28;20329;-70
2020/12/16 11:57:06;;;;;;;;;;;;;;;;;;5012703;28;19913;-68
2020/12/16 11:59:32;;;;;;;;;;;;;;;;;;5019314;28;19922;-69
2020/12/16 12:01:58;;;;;;;;;;;;;;;;;;5012062;28;19910;-69
2020/12/16 12:04:24;;;;;;;;;;;;;;;;;;5013011;28;20550;-69
2020/12/16 12:06:50;;;;;;;;;;;;;;;;;;5012990;28;19944;-69
2020/12/16 12:09:16;;;;;;;;;;;;;;;;;;5024571;28;19957;-69
2020/12/16 12:11:42;;;;;;;;;;;;;;;;;;5025674;28;20411;-69
2020/12/16 12:14:08;;;;;;;;;;;;;;;;;;5012613;28;20286;-68
2020/12/16 12:16:34;;;;;;;;;;;;;;;;;;5013304;28;19913;-69
2020/12/16 12:18:59;;;;;;;;;;;;;;;;;;5012457;28;19952;-69
2020/12/16 12:21:26;;;;;;;;;;;;;;;;;;5027518;28;19944;-69
2020/12/16 12:23:52;;;;;;;;;;;;;;;;;;5013070;28;20393;-69
2020/12/16 12:26:18;;;;;;;;;;;;;;;;;;5012654;28;19917;-68
2020/12/16 12:28:44;;;;;;;;;;;;;;;;;;5012484;28;19917;-69
2020/12/16 12:31:10;;;;;;;;;;;;;;;;;;5013702;28;20349;-69
2020/12/16 12:33:36;;;;;;;;;;;;;;;;;;5014514;28;20289;-69
2020/12/16 12:36:02;;;;;;;;;;;;;;;;;;5011939;28;19917;-68
2020/12/16 12:38:28;;;;;;;;;;;;;;;;;;5021959;28;20527;-67
2020/12/16 12:40:53;;;;;;;;;;;;;;;;;;5035699;28;19948;-69
2020/12/16 12:43:19;;;;;;;;;;;;;;;;;;5017079;28;19976;-69
2020/12/16 12:45:45;;;;;;;;;;;;;;;;;;5011938;28;19948;-69
2020/12/16 12:48:11;;;;;;;;;;;;;;;;;;5019886;28;20284;-69
2020/12/16 12:50:38;;;;;;;;;;;;;;;;;;5027408;28;19940;-70
2020/12/16 12:53:04;;;;;;;;;;;;;;;;;;5010352;28;19916;-70
2020/12/16 12:55:30;;;;;;;;;;;;;;;;;;5020954;28;20359;-69
2020/12/16 12:57:56;;;;;;;;;;;;;;;;;;5010395;28;20397;-69
2020/12/16 13:00:22;;;;;;;;;;;;;;;;;;5008463;28;19937;-70
2020/12/16 13:02:48;;;;;;;;;;;;;;;;;;5008621;28;20001;-69
2020/12/16 13:05:14;;;;;;;;;;;;;;;;;;5008666;28;19945;-70
2020/12/16 13:07:40;;;;;;;;;;;;;;;;;;5020642;28;20528;-70
2020/12/16 13:10:06;;;;;;;;;;;;;;;;;;5019578;28;19957;-70
2020/12/16 13:12:32;;;;;;;;;;;;;;;;;;5011216;28;19956;-70
2020/12/16 13:14:58;;;;;;;;;;;;;;;;;;5011561;28;19953;-70
2020/12/16 13:17:24;;;;;;;;;;;;;;;;;;5011576;28;20023;-69
2020/12/16 13:19:49;;;;;;;;;;;;;;;;;;5010205;28;19916;-70
2020/12/16 13:22:18;;;;;;;;;;;;;;;;;;5010368;28;19916;-70
2020/12/16 13:24:44;;;;;;;;;;;;;;;;;;5023931;28;19959;-70
2020/12/16 13:27:10;;;;;;;;;;;;;;;;;;5027581;28;19909;-70
2020/12/16 13:29:36;;;;;;;;;;;;;;;;;;5016299;28;19910;-70
2020/12/16 13:32:02;;;;;;;;;;;;;;;;;;5015648;28;20341;-70
2020/12/16 13:34:28;;;;;;;;;;;;;;;;;;5015276;28;19911;-70
2020/12/16 13:36:54;;;;;;;;;;;;;;;;;;5017683;28;19949;-70
2020/12/16 13:39:20;;;;;;;;;;;;;;;;;;5026511;28;19944;-70
2020/12/16 13:41:46;;;;;;;;;;;;;;;;;;5026678;28;19956;-70
2020/12/16 13:44:12;;;;;;;;;;;;;;;;;;5028361;28;19972;-70
2020/12/16 13:46:38;;;;;;;;;;;;;;;;;;5034116;28;19913;-70
2020/12/16 13:49:04;;;;;;;;;;;;;;;;;;5033423;28;19967;-69
2020/12/16 13:51:30;;;;;;;;;;;;;;;;;;5024207;28;19963;-70
2020/12/16 13:53:56;;;;;;;;;;;;;;;;;;5019284;28;20504;-69
2020/12/16 13:56:24;;;;;;;;;;;;;;;;;;5020794;28;20007;-70
2020/12/16 13:58:50;;;;;;;;;;;;;;;;;;5014646;28;19910;-70
2020/12/16 14:01:16;;;;;;;;;;;;;;;;;;5014909;28;19928;-69
2020/12/16 14:03:41;;;;;;;;;;;;;;;;;;5025924;28;20361;-70
2020/12/16 14:06:07;;;;;;;;;;;;;;;;;;5032178;28;19909;-70
2020/12/16 14:08:35;;;;;;;;;;;;;;;;;;5037049;28;19909;-69
2020/12/16 14:11:01;;;;;;;;;;;;;;;;;;5021768;28;19952;-69
2020/12/16 14:13:27;;;;;;;;;;;;;;;;;;5013344;28;19948;-69
2020/12/16 14:15:53;;;;;;;;;;;;;;;;;;5014368;28;20016;-69
2020/12/16 14:18:18;;;;;;;;;;;;;;;;;;5014546;28;19973;-69
2020/12/16 14:20:44;;;;;;;;;;;;;;;;;;5016933;28;20012;-70
2020/12/16 14:23:10;;;;;;;;;;;;;;;;;;5029020;28;19973;-70
2020/12/16 14:25:36;;;;;;;;;;;;;;;;;;5035552;28;20391;-69
2020/12/16 14:28:02;;;;;;;;;;;;;;;;;;5023484;28;20000;-69
2020/12/16 14:30:28;;;;;;;;;;;;;;;;;;5019374;28;19913;-70
2020/12/16 14:32:55;;;;;;;;;;;;;;;;;;5025562;28;20294;-69
2020/12/16 14:35:21;;;;;;;;;;;;;;;;;;5013971;28;19910;-69
2020/12/16 14:37:47;;;;;;;;;;;;;;;;;;5012770;28;20396;-70
2020/12/16 14:40:12;;;;;;;;;;;;;;;;;;5028597;28;20329;-70
2020/12/16 14:42:38;;;;;;;;;;;;;;;;;;5020304;28;19980;-71
2020/12/16 14:45:04;;;;;;;;;;;;;;;;;;5016949;28;19957;-70
2020/12/16 14:47:30;;;;;;;;;;;;;;;;;;5022368;28;19935;-69
2020/12/16 14:49:56;;;;;;;;;;;;;;;;;;5012346;28;20420;-70
2020/12/16 14:52:22;;;;;;;;;;;;;;;;;;5013764;28;19949;-70
2020/12/16 14:54:48;;;;;;;;;;;;;;;;;;5012195;28;20007;-70
2020/12/16 14:57:14;;;;;;;;;;;;;;;;;;5012284;28;19948;-70
2020/12/16 14:59:40;;;;;;;;;;;;;;;;;;5013447;28;19913;-70
2020/12/16 15:02:06;;;;;;;;;;;;;;;;;;5013813;28;19952;-69
2020/12/16 15:04:32;;;;;;;;;;;;;;;;;;5012182;28;20318;-70
2020/12/16 15:06:58;;;;;;;;;;;;;;;;;;5018182;28;19921;-70
2020/12/16 15:09:25;;;;;;;;;;;;;;;;;;5029525;28;19909;-70
2020/12/16 15:11:50;;;;;;;;;;;;;;;;;;5016256;28;20032;-69
2020/12/16 15:14:16;;;;;;;;;;;;;;;;;;5013532;28;20354;-69
2020/12/16 15:16:42;;;;;;;;;;;;;;;;;;5017989;28;20393;-70
2020/12/16 15:19:08;;;;;;;;;;;;;;;;;;5013153;28;19925;-70
2020/12/16 15:21:34;;;;;;;;;;;;;;;;;;5017122;28;19913;-70
2020/12/16 15:24:00;;;;;;;;;;;;;;;;;;5020232;28;20533;-70
2020/12/16 15:26:26;;;;;;;;;;;;;;;;;;5020584;28;19909;-70
2020/12/16 15:28:52;;;;;;;;;;;;;;;;;;5012785;28;20012;-69
2020/12/16 15:31:18;;;;;;;;;;;;;;;;;;5018581;28;19921;-69
2020/12/16 15:33:44;;;;;;;;;;;;;;;;;;5017385;28;19917;-70
2020/12/16 15:36:10;;;;;;;;;;;;;;;;;;5020545;28;19916;-70
2020/12/16 15:38:36;;;;;;;;;;;;;;;;;;5024006;28;19929;-69
2020/12/16 15:41:02;;;;;;;;;;;;;;;;;;5020103;28;20595;-70
2020/12/16 15:43:27;;;;;;;;;;;;;;;;;;5022988;28;19955;-70
2020/12/16 15:45:53;;;;;;;;;;;;;;;;;;5020981;28;19940;-70
2020/12/16 15:48:19;;;;;;;;;;;;;;;;;;5015158;28;20011;-70
2020/12/16 15:50:45;;;;;;;;;;;;;;;;;;5012682;28;20029;-69
2020/12/16 15:53:11;;;;;;;;;;;;;;;;;;5017670;28;20421;-70
2020/12/16 15:55:37;;;;;;;;;;;;;;;;;;5026210;28;20348;-70
2020/12/16 15:58:03;;;;;;;;;;;;;;;;;;5031213;28;19956;-71
2020/12/16 16:00:29;;;;;;;;;;;;;;;;;;5031482;28;19972;-70
2020/12/16 16:02:55;;;;;;;;;;;;;;;;;;5012332;28;20016;-70
2020/12/16 16:05:20;;;;;;;;;;;;;;;;;;5012632;28;20004;-70
2020/12/16 16:07:46;;;;;;;;;;;;;;;;;;5012083;28;20044;-70
2020/12/16 16:10:12;;;;;;;;;;;;;;;;;;5037047;28;19955;-69
2020/12/16 16:12:38;;;;;;;;;;;;;;;;;;5012531;28;19941;-70
2020/12/16 16:15:04;;;;;;;;;;;;;;;;;;5033775;28;20395;-70
2020/12/16 16:17:30;;;;;;;;;;;;;;;;;;5019002;28;19916;-70
2020/12/16 16:19:56;;;;;;;;;;;;;;;;;;5013342;28;19968;-70
2020/12/16 16:22:22;;;;;;;;;;;;;;;;;;5029233;28;20012;-71
2020/12/16 16:24:48;;;;;;;;;;;;;;;;;;5030635;28;20468;-70
2020/12/16 16:27:14;;;;;;;;;;;;;;;;;;5030959;28;19999;-71
2020/12/16 16:29:41;;;;;;;;;;;;;;;;;;5022036;28;19991;-71
2020/12/16 16:32:07;;;;;;;;;;;;;;;;;;5011986;28;19913;-70
2020/12/16 16:34:32;;;;;;;;;;;;;;;;;;5010528;28;19913;-71
2020/12/16 16:36:58;;;;;;;;;;;;;;;;;;5018941;28;19941;-71